sensor_id;sensor_type;location;lat;lon;timestamp;P1;durP1;ratioP1;P2;durP2;ratioP2
14470;SDS011;7321;50.802;4.336;2023-07-13T00:00:46;6.25;;;2.72;;
14470;SDS011;7321;50.802;4.336;2023-07-13T00:03:12;7.32;;;2.60;;
14470;SDS011;7321;50.802;4.336;2023-07-13T00:05:39;7.20;;;2.80;;
14470;SDS011;7321;50.802;4.336;2023-07-13T00:08:06;7.15;;;2.63;;
14470;SDS011;7321;50.802;4.336;2023-07-13T00:10:33;7.60;;;2.78;;
14470;SDS011;7321;50.802;4.336;2023-07-13T00:12:59;6.85;;;2.35;;
14470;SDS011;7321;50.802;4.336;2023-07-13T00:15:26;6.18;;;2.95;;
14470;SDS011;7321;50.802;4.336;2023-07-13T00:17:57;8.80;;;3.33;;
14470;SDS011;7321;50.802;4.336;2023-07-13T00:20:23;4.78;;;2.70;;
14470;SDS011;7321;50.802;4.336;2023-07-13T00:22:51;4.57;;;2.65;;
14470;SDS011;7321;50.802;4.336;2023-07-13T00:25:19;8.43;;;2.85;;
14470;SDS011;7321;50.802;4.336;2023-07-13T00:27:46;8.05;;;2.75;;
14470;SDS011;7321;50.802;4.336;2023-07-13T00:30:16;7.97;;;3.13;;
14470;SDS011;7321;50.802;4.336;2023-07-13T00:32:42;5.78;;;2.58;;
14470;SDS011;7321;50.802;4.336;2023-07-13T00:35:08;8.88;;;2.67;;
14470;SDS011;7321;50.802;4.336;2023-07-13T00:37:34;6.28;;;3.00;;
14470;SDS011;7321;50.802;4.336;2023-07-13T00:40:01;7.53;;;2.97;;
14470;SDS011;7321;50.802;4.336;2023-07-13T00:42:30;5.55;;;2.35;;
14470;SDS011;7321;50.802;4.336;2023-07-13T00:45:00;7.50;;;2.53;;
14470;SDS011;7321;50.802;4.336;2023-07-13T00:47:26;7.82;;;3.03;;
14470;SDS011;7321;50.802;4.336;2023-07-13T00:49:52;8.95;;;2.67;;
14470;SDS011;7321;50.802;4.336;2023-07-13T00:52:18;6.20;;;2.55;;
14470;SDS011;7321;50.802;4.336;2023-07-13T00:54:44;8.80;;;2.67;;
14470;SDS011;7321;50.802;4.336;2023-07-13T00:57:14;11.05;;;2.78;;
14470;SDS011;7321;50.802;4.336;2023-07-13T00:59:43;6.53;;;2.97;;
14470;SDS011;7321;50.802;4.336;2023-07-13T01:02:14;7.57;;;2.95;;
14470;SDS011;7321;50.802;4.336;2023-07-13T01:04:41;5.95;;;2.78;;
14470;SDS011;7321;50.802;4.336;2023-07-13T01:07:09;6.07;;;2.60;;
14470;SDS011;7321;50.802;4.336;2023-07-13T01:09:37;6.90;;;2.75;;
14470;SDS011;7321;50.802;4.336;2023-07-13T01:12:03;6.43;;;2.67;;
14470;SDS011;7321;50.802;4.336;2023-07-13T01:14:29;6.10;;;2.75;;
14470;SDS011;7321;50.802;4.336;2023-07-13T01:16:55;7.43;;;2.88;;
14470;SDS011;7321;50.802;4.336;2023-07-13T01:19:24;8.57;;;2.90;;
14470;SDS011;7321;50.802;4.336;2023-07-13T01:22:01;4.97;;;2.83;;
14470;SDS011;7321;50.802;4.336;2023-07-13T01:24:37;7.53;;;2.55;;
14470;SDS011;7321;50.802;4.336;2023-07-13T01:27:04;7.90;;;2.90;;
14470;SDS011;7321;50.802;4.336;2023-07-13T01:29:32;8.02;;;2.85;;
14470;SDS011;7321;50.802;4.336;2023-07-13T01:31:59;7.45;;;2.70;;
14470;SDS011;7321;50.802;4.336;2023-07-13T01:34:26;8.38;;;2.92;;
14470;SDS011;7321;50.802;4.336;2023-07-13T01:36:53;6.55;;;2.83;;
14470;SDS011;7321;50.802;4.336;2023-07-13T01:39:20;7.50;;;3.05;;
14470;SDS011;7321;50.802;4.336;2023-07-13T01:41:47;8.18;;;3.00;;
14470;SDS011;7321;50.802;4.336;2023-07-13T01:44:13;6.63;;;2.60;;
14470;SDS011;7321;50.802;4.336;2023-07-13T01:46:39;7.18;;;3.17;;
14470;SDS011;7321;50.802;4.336;2023-07-13T01:49:05;5.18;;;2.67;;
14470;SDS011;7321;50.802;4.336;2023-07-13T01:51:30;6.38;;;3.25;;
14470;SDS011;7321;50.802;4.336;2023-07-13T01:53:56;12.98;;;3.13;;
14470;SDS011;7321;50.802;4.336;2023-07-13T01:56:22;9.27;;;3.28;;
14470;SDS011;7321;50.802;4.336;2023-07-13T01:58:48;8.80;;;3.45;;
14470;SDS011;7321;50.802;4.336;2023-07-13T02:01:14;7.32;;;3.10;;
14470;SDS011;7321;50.802;4.336;2023-07-13T02:03:40;6.35;;;2.85;;
14470;SDS011;7321;50.802;4.336;2023-07-13T02:06:05;7.40;;;3.03;;
14470;SDS011;7321;50.802;4.336;2023-07-13T02:08:32;9.07;;;3.13;;
14470;SDS011;7321;50.802;4.336;2023-07-13T02:10:59;11.73;;;3.47;;
14470;SDS011;7321;50.802;4.336;2023-07-13T02:13:25;6.75;;;2.95;;
14470;SDS011;7321;50.802;4.336;2023-07-13T02:15:51;6.82;;;2.95;;
14470;SDS011;7321;50.802;4.336;2023-07-13T02:18:17;8.27;;;3.55;;
14470;SDS011;7321;50.802;4.336;2023-07-13T02:20:43;9.00;;;3.47;;
14470;SDS011;7321;50.802;4.336;2023-07-13T02:23:09;6.88;;;3.60;;
14470;SDS011;7321;50.802;4.336;2023-07-13T02:25:35;9.30;;;3.20;;
14470;SDS011;7321;50.802;4.336;2023-07-13T02:28:01;9.82;;;3.05;;
14470;SDS011;7321;50.802;4.336;2023-07-13T02:30:27;6.18;;;2.90;;
14470;SDS011;7321;50.802;4.336;2023-07-13T02:32:55;7.47;;;3.03;;
14470;SDS011;7321;50.802;4.336;2023-07-13T02:35:22;6.93;;;3.63;;
14470;SDS011;7321;50.802;4.336;2023-07-13T02:37:48;8.45;;;3.25;;
14470;SDS011;7321;50.802;4.336;2023-07-13T02:40:14;8.15;;;3.17;;
14470;SDS011;7321;50.802;4.336;2023-07-13T02:42:40;8.60;;;3.60;;
14470;SDS011;7321;50.802;4.336;2023-07-13T02:45:07;8.35;;;3.58;;
14470;SDS011;7321;50.802;4.336;2023-07-13T02:47:35;7.85;;;3.65;;
14470;SDS011;7321;50.802;4.336;2023-07-13T02:50:01;6.88;;;3.42;;
14470;SDS011;7321;50.802;4.336;2023-07-13T02:52:27;8.38;;;3.20;;
14470;SDS011;7321;50.802;4.336;2023-07-13T02:54:53;9.07;;;3.30;;
14470;SDS011;7321;50.802;4.336;2023-07-13T02:57:19;10.60;;;3.72;;
14470;SDS011;7321;50.802;4.336;2023-07-13T02:59:45;10.32;;;3.20;;
14470;SDS011;7321;50.802;4.336;2023-07-13T03:02:11;6.93;;;3.40;;
14470;SDS011;7321;50.802;4.336;2023-07-13T03:04:37;9.50;;;3.50;;
14470;SDS011;7321;50.802;4.336;2023-07-13T03:07:03;5.97;;;3.00;;
14470;SDS011;7321;50.802;4.336;2023-07-13T03:09:30;9.05;;;3.60;;
14470;SDS011;7321;50.802;4.336;2023-07-13T03:11:56;8.80;;;3.88;;
14470;SDS011;7321;50.802;4.336;2023-07-13T03:14:22;7.80;;;2.88;;
14470;SDS011;7321;50.802;4.336;2023-07-13T03:16:48;10.77;;;3.63;;
14470;SDS011;7321;50.802;4.336;2023-07-13T03:19:14;9.30;;;3.45;;
14470;SDS011;7321;50.802;4.336;2023-07-13T03:21:41;8.25;;;3.47;;
14470;SDS011;7321;50.802;4.336;2023-07-13T03:24:07;6.75;;;3.33;;
14470;SDS011;7321;50.802;4.336;2023-07-13T03:26:32;10.18;;;3.83;;
14470;SDS011;7321;50.802;4.336;2023-07-13T03:28:58;11.20;;;4.30;;
14470;SDS011;7321;50.802;4.336;2023-07-13T03:31:25;10.38;;;3.92;;
14470;SDS011;7321;50.802;4.336;2023-07-13T03:33:54;11.05;;;4.65;;
14470;SDS011;7321;50.802;4.336;2023-07-13T03:36:22;10.77;;;4.28;;
14470;SDS011;7321;50.802;4.336;2023-07-13T03:38:51;11.90;;;4.05;;
14470;SDS011;7321;50.802;4.336;2023-07-13T03:41:19;8.30;;;3.92;;
14470;SDS011;7321;50.802;4.336;2023-07-13T03:43:45;11.43;;;4.50;;
14470;SDS011;7321;50.802;4.336;2023-07-13T03:46:13;8.00;;;3.80;;
14470;SDS011;7321;50.802;4.336;2023-07-13T03:48:40;10.73;;;4.05;;
14470;SDS011;7321;50.802;4.336;2023-07-13T03:51:08;9.00;;;4.07;;
14470;SDS011;7321;50.802;4.336;2023-07-13T03:53:37;11.00;;;3.90;;
14470;SDS011;7321;50.802;4.336;2023-07-13T03:56:04;11.13;;;4.05;;
14470;SDS011;7321;50.802;4.336;2023-07-13T04:00:58;10.50;;;4.07;;
14470;SDS011;7321;50.802;4.336;2023-07-13T04:03:26;10.32;;;3.53;;
14470;SDS011;7321;50.802;4.336;2023-07-13T04:05:53;8.43;;;3.40;;
14470;SDS011;7321;50.802;4.336;2023-07-13T04:08:25;10.00;;;3.83;;
14470;SDS011;7321;50.802;4.336;2023-07-13T04:11:01;8.60;;;3.70;;
14470;SDS011;7321;50.802;4.336;2023-07-13T04:13:28;12.27;;;4.25;;
14470;SDS011;7321;50.802;4.336;2023-07-13T04:15:55;10.27;;;4.03;;
14470;SDS011;7321;50.802;4.336;2023-07-13T04:18:20;14.40;;;4.60;;
14470;SDS011;7321;50.802;4.336;2023-07-13T04:20:47;10.73;;;3.78;;
14470;SDS011;7321;50.802;4.336;2023-07-13T04:23:15;15.02;;;4.57;;
14470;SDS011;7321;50.802;4.336;2023-07-13T04:25:44;13.85;;;3.63;;
14470;SDS011;7321;50.802;4.336;2023-07-13T04:28:11;12.07;;;4.25;;
14470;SDS011;7321;50.802;4.336;2023-07-13T04:30:37;10.85;;;3.92;;
14470;SDS011;7321;50.802;4.336;2023-07-13T04:33:03;11.70;;;4.32;;
14470;SDS011;7321;50.802;4.336;2023-07-13T04:35:29;13.65;;;4.35;;
14470;SDS011;7321;50.802;4.336;2023-07-13T04:37:56;10.82;;;3.97;;
14470;SDS011;7321;50.802;4.336;2023-07-13T04:40:22;14.70;;;4.40;;
14470;SDS011;7321;50.802;4.336;2023-07-13T04:42:48;14.52;;;4.30;;
14470;SDS011;7321;50.802;4.336;2023-07-13T04:45:14;9.55;;;3.85;;
14470;SDS011;7321;50.802;4.336;2023-07-13T04:47:40;10.63;;;3.30;;
14470;SDS011;7321;50.802;4.336;2023-07-13T04:50:06;11.63;;;4.13;;
14470;SDS011;7321;50.802;4.336;2023-07-13T04:52:33;14.77;;;4.05;;
14470;SDS011;7321;50.802;4.336;2023-07-13T04:55:00;11.30;;;4.07;;
14470;SDS011;7321;50.802;4.336;2023-07-13T04:57:26;11.63;;;4.38;;
14470;SDS011;7321;50.802;4.336;2023-07-13T04:59:53;9.45;;;3.38;;
14470;SDS011;7321;50.802;4.336;2023-07-13T05:02:20;8.60;;;3.67;;
14470;SDS011;7321;50.802;4.336;2023-07-13T05:04:47;14.50;;;4.32;;
14470;SDS011;7321;50.802;4.336;2023-07-13T05:07:13;14.75;;;4.35;;
14470;SDS011;7321;50.802;4.336;2023-07-13T05:09:39;13.73;;;4.35;;
14470;SDS011;7321;50.802;4.336;2023-07-13T05:12:06;10.90;;;4.60;;
14470;SDS011;7321;50.802;4.336;2023-07-13T05:14:33;11.88;;;3.95;;
14470;SDS011;7321;50.802;4.336;2023-07-13T05:16:59;13.75;;;3.85;;
14470;SDS011;7321;50.802;4.336;2023-07-13T05:19:25;12.10;;;4.18;;
14470;SDS011;7321;50.802;4.336;2023-07-13T05:21:51;13.93;;;4.43;;
14470;SDS011;7321;50.802;4.336;2023-07-13T05:24:17;10.68;;;4.15;;
14470;SDS011;7321;50.802;4.336;2023-07-13T05:26:43;13.68;;;4.25;;
14470;SDS011;7321;50.802;4.336;2023-07-13T05:29:09;10.38;;;4.18;;
14470;SDS011;7321;50.802;4.336;2023-07-13T05:31:35;13.00;;;4.22;;
14470;SDS011;7321;50.802;4.336;2023-07-13T05:34:01;12.10;;;3.97;;
14470;SDS011;7321;50.802;4.336;2023-07-13T05:36:27;8.75;;;4.13;;
14470;SDS011;7321;50.802;4.336;2023-07-13T05:38:54;8.75;;;3.88;;
14470;SDS011;7321;50.802;4.336;2023-07-13T05:41:19;10.35;;;3.53;;
14470;SDS011;7321;50.802;4.336;2023-07-13T05:43:45;10.55;;;3.80;;
14470;SDS011;7321;50.802;4.336;2023-07-13T05:46:11;14.15;;;4.47;;
14470;SDS011;7321;50.802;4.336;2023-07-13T05:48:37;14.57;;;4.30;;
14470;SDS011;7321;50.802;4.336;2023-07-13T05:51:03;10.32;;;4.15;;
14470;SDS011;7321;50.802;4.336;2023-07-13T05:53:29;11.55;;;3.85;;
14470;SDS011;7321;50.802;4.336;2023-07-13T05:55:54;14.88;;;4.80;;
14470;SDS011;7321;50.802;4.336;2023-07-13T05:58:21;14.60;;;4.40;;
14470;SDS011;7321;50.802;4.336;2023-07-13T06:00:47;15.43;;;3.90;;
14470;SDS011;7321;50.802;4.336;2023-07-13T06:03:14;13.52;;;4.32;;
14470;SDS011;7321;50.802;4.336;2023-07-13T06:05:41;11.90;;;4.38;;
14470;SDS011;7321;50.802;4.336;2023-07-13T06:08:07;10.52;;;3.83;;
14470;SDS011;7321;50.802;4.336;2023-07-13T06:10:36;12.45;;;4.43;;
14470;SDS011;7321;50.802;4.336;2023-07-13T06:13:02;12.25;;;4.43;;
14470;SDS011;7321;50.802;4.336;2023-07-13T06:15:28;9.27;;;4.30;;
14470;SDS011;7321;50.802;4.336;2023-07-13T06:17:54;11.13;;;3.63;;
14470;SDS011;7321;50.802;4.336;2023-07-13T06:20:25;13.73;;;4.35;;
14470;SDS011;7321;50.802;4.336;2023-07-13T06:22:51;9.90;;;4.00;;
14470;SDS011;7321;50.802;4.336;2023-07-13T06:25:17;10.52;;;3.58;;
14470;SDS011;7321;50.802;4.336;2023-07-13T06:27:44;11.48;;;4.05;;
14470;SDS011;7321;50.802;4.336;2023-07-13T06:30:10;12.05;;;4.00;;
14470;SDS011;7321;50.802;4.336;2023-07-13T06:32:36;10.05;;;3.67;;
14470;SDS011;7321;50.802;4.336;2023-07-13T06:35:02;11.55;;;4.00;;
14470;SDS011;7321;50.802;4.336;2023-07-13T06:37:28;9.73;;;4.38;;
14470;SDS011;7321;50.802;4.336;2023-07-13T06:39:57;11.55;;;4.47;;
14470;SDS011;7321;50.802;4.336;2023-07-13T06:42:23;16.23;;;4.85;;
14470;SDS011;7321;50.802;4.336;2023-07-13T06:44:49;7.38;;;3.53;;
14470;SDS011;7321;50.802;4.336;2023-07-13T06:47:17;11.88;;;4.63;;
14470;SDS011;7321;50.802;4.336;2023-07-13T06:49:46;12.27;;;3.92;;
14470;SDS011;7321;50.802;4.336;2023-07-13T06:52:12;13.32;;;4.10;;
14470;SDS011;7321;50.802;4.336;2023-07-13T06:54:38;10.48;;;4.68;;
14470;SDS011;7321;50.802;4.336;2023-07-13T06:57:04;9.40;;;4.13;;
14470;SDS011;7321;50.802;4.336;2023-07-13T06:59:30;11.23;;;4.18;;
14470;SDS011;7321;50.802;4.336;2023-07-13T07:01:55;10.70;;;4.65;;
14470;SDS011;7321;50.802;4.336;2023-07-13T07:04:21;8.35;;;3.47;;
14470;SDS011;7321;50.802;4.336;2023-07-13T07:06:47;10.35;;;4.22;;
14470;SDS011;7321;50.802;4.336;2023-07-13T07:09:13;14.43;;;3.83;;
14470;SDS011;7321;50.802;4.336;2023-07-13T07:11:39;12.30;;;3.90;;
14470;SDS011;7321;50.802;4.336;2023-07-13T07:14:05;12.40;;;4.07;;
14470;SDS011;7321;50.802;4.336;2023-07-13T07:16:32;7.68;;;3.80;;
14470;SDS011;7321;50.802;4.336;2023-07-13T07:19:01;12.05;;;3.92;;
14470;SDS011;7321;50.802;4.336;2023-07-13T07:21:27;19.85;;;5.13;;
14470;SDS011;7321;50.802;4.336;2023-07-13T07:23:53;11.85;;;4.35;;
14470;SDS011;7321;50.802;4.336;2023-07-13T07:26:18;9.88;;;3.53;;
14470;SDS011;7321;50.802;4.336;2023-07-13T07:28:44;12.13;;;3.95;;
14470;SDS011;7321;50.802;4.336;2023-07-13T07:31:10;9.73;;;3.45;;
14470;SDS011;7321;50.802;4.336;2023-07-13T07:33:36;11.75;;;3.78;;
14470;SDS011;7321;50.802;4.336;2023-07-13T07:36:02;11.52;;;4.15;;
14470;SDS011;7321;50.802;4.336;2023-07-13T07:38:30;10.40;;;3.90;;
14470;SDS011;7321;50.802;4.336;2023-07-13T07:40:55;8.75;;;3.42;;
14470;SDS011;7321;50.802;4.336;2023-07-13T07:43:21;10.82;;;4.18;;
14470;SDS011;7321;50.802;4.336;2023-07-13T07:45:47;7.97;;;3.40;;
14470;SDS011;7321;50.802;4.336;2023-07-13T07:48:13;12.10;;;3.80;;
14470;SDS011;7321;50.802;4.336;2023-07-13T07:50:39;12.35;;;3.67;;
14470;SDS011;7321;50.802;4.336;2023-07-13T07:53:05;9.43;;;3.42;;
14470;SDS011;7321;50.802;4.336;2023-07-13T07:55:33;10.13;;;4.10;;
14470;SDS011;7321;50.802;4.336;2023-07-13T07:58:02;9.13;;;2.95;;
14470;SDS011;7321;50.802;4.336;2023-07-13T08:00:28;9.38;;;3.40;;
14470;SDS011;7321;50.802;4.336;2023-07-13T08:02:57;8.30;;;3.05;;
14470;SDS011;7321;50.802;4.336;2023-07-13T08:05:24;9.88;;;3.50;;
14470;SDS011;7321;50.802;4.336;2023-07-13T08:07:50;8.50;;;3.45;;
14470;SDS011;7321;50.802;4.336;2023-07-13T08:10:16;12.57;;;4.03;;
14470;SDS011;7321;50.802;4.336;2023-07-13T08:12:42;10.25;;;3.78;;
14470;SDS011;7321;50.802;4.336;2023-07-13T08:15:10;6.78;;;3.30;;
14470;SDS011;7321;50.802;4.336;2023-07-13T08:17:37;12.45;;;3.13;;
14470;SDS011;7321;50.802;4.336;2023-07-13T08:20:03;8.30;;;3.30;;
14470;SDS011;7321;50.802;4.336;2023-07-13T08:22:29;8.55;;;3.20;;
14470;SDS011;7321;50.802;4.336;2023-07-13T08:24:55;8.50;;;3.08;;
14470;SDS011;7321;50.802;4.336;2023-07-13T08:27:24;11.40;;;3.30;;
14470;SDS011;7321;50.802;4.336;2023-07-13T08:29:51;7.65;;;3.30;;
14470;SDS011;7321;50.802;4.336;2023-07-13T08:32:18;9.10;;;3.70;;
14470;SDS011;7321;50.802;4.336;2023-07-13T08:34:45;8.55;;;3.05;;
14470;SDS011;7321;50.802;4.336;2023-07-13T08:37:11;8.55;;;3.15;;
14470;SDS011;7321;50.802;4.336;2023-07-13T08:39:37;8.23;;;3.45;;
14470;SDS011;7321;50.802;4.336;2023-07-13T08:42:10;8.05;;;3.20;;
14470;SDS011;7321;50.802;4.336;2023-07-13T08:47:14;7.22;;;3.25;;
14470;SDS011;7321;50.802;4.336;2023-07-13T08:49:41;10.93;;;3.42;;
14470;SDS011;7321;50.802;4.336;2023-07-13T08:54:50;9.95;;;3.35;;
14470;SDS011;7321;50.802;4.336;2023-07-13T08:57:19;8.15;;;3.35;;
14470;SDS011;7321;50.802;4.336;2023-07-13T08:59:49;7.50;;;3.78;;
14470;SDS011;7321;50.802;4.336;2023-07-13T09:04:49;6.38;;;2.67;;
14470;SDS011;7321;50.802;4.336;2023-07-13T09:15:55;5.97;;;3.17;;
14470;SDS011;7321;50.802;4.336;2023-07-13T09:20:54;7.88;;;2.75;;
14470;SDS011;7321;50.802;4.336;2023-07-13T09:23:24;7.15;;;3.25;;
14470;SDS011;7321;50.802;4.336;2023-07-13T09:25:58;6.80;;;3.08;;
14470;SDS011;7321;50.802;4.336;2023-07-13T09:28:45;8.40;;;3.72;;
14470;SDS011;7321;50.802;4.336;2023-07-13T09:31:26;10.25;;;3.42;;
14470;SDS011;7321;50.802;4.336;2023-07-13T09:33:55;6.78;;;3.20;;
14470;SDS011;7321;50.802;4.336;2023-07-13T09:36:23;12.60;;;6.70;;
14470;SDS011;7321;50.802;4.336;2023-07-13T09:41:37;7.38;;;3.10;;
14470;SDS011;7321;50.802;4.336;2023-07-13T09:44:12;5.40;;;3.10;;
14470;SDS011;7321;50.802;4.336;2023-07-13T09:46:46;7.75;;;3.00;;
14470;SDS011;7321;50.802;4.336;2023-07-13T09:49:17;6.68;;;2.70;;
14470;SDS011;7321;50.802;4.336;2023-07-13T09:51:44;7.55;;;2.97;;
14470;SDS011;7321;50.802;4.336;2023-07-13T09:54:19;7.70;;;2.78;;
14470;SDS011;7321;50.802;4.336;2023-07-13T09:56:53;8.35;;;3.63;;
14470;SDS011;7321;50.802;4.336;2023-07-13T09:59:21;7.75;;;2.95;;
14470;SDS011;7321;50.802;4.336;2023-07-13T10:01:49;6.13;;;2.70;;
14470;SDS011;7321;50.802;4.336;2023-07-13T10:04:19;7.70;;;2.70;;
14470;SDS011;7321;50.802;4.336;2023-07-13T10:06:47;4.32;;;2.30;;
14470;SDS011;7321;50.802;4.336;2023-07-13T10:09:15;8.32;;;5.88;;
14470;SDS011;7321;50.802;4.336;2023-07-13T10:11:42;7.07;;;3.10;;
14470;SDS011;7321;50.802;4.336;2023-07-13T10:16:38;7.15;;;3.40;;
14470;SDS011;7321;50.802;4.336;2023-07-13T10:19:21;4.60;;;2.55;;
14470;SDS011;7321;50.802;4.336;2023-07-13T10:21:57;4.15;;;2.35;;
14470;SDS011;7321;50.802;4.336;2023-07-13T10:24:36;6.85;;;2.60;;
14470;SDS011;7321;50.802;4.336;2023-07-13T10:29:45;6.40;;;2.50;;
14470;SDS011;7321;50.802;4.336;2023-07-13T10:32:14;5.70;;;2.75;;
14470;SDS011;7321;50.802;4.336;2023-07-13T10:34:40;5.43;;;2.72;;
14470;SDS011;7321;50.802;4.336;2023-07-13T10:37:19;6.43;;;2.83;;
14470;SDS011;7321;50.802;4.336;2023-07-13T10:39:52;6.65;;;2.97;;
14470;SDS011;7321;50.802;4.336;2023-07-13T10:42:30;5.07;;;2.50;;
14470;SDS011;7321;50.802;4.336;2023-07-13T10:45:02;4.22;;;2.50;;
14470;SDS011;7321;50.802;4.336;2023-07-13T10:47:46;4.80;;;2.65;;
14470;SDS011;7321;50.802;4.336;2023-07-13T10:50:19;6.10;;;2.70;;
14470;SDS011;7321;50.802;4.336;2023-07-13T10:52:49;6.50;;;2.35;;
14470;SDS011;7321;50.802;4.336;2023-07-13T10:58:22;7.15;;;2.63;;
14470;SDS011;7321;50.802;4.336;2023-07-13T11:03:20;5.80;;;2.28;;
14470;SDS011;7321;50.802;4.336;2023-07-13T11:05:48;8.85;;;2.85;;
14470;SDS011;7321;50.802;4.336;2023-07-13T11:08:18;5.30;;;2.20;;
14470;SDS011;7321;50.802;4.336;2023-07-13T11:18:52;6.07;;;2.70;;
14470;SDS011;7321;50.802;4.336;2023-07-13T11:22:01;7.53;;;2.92;;
14470;SDS011;7321;50.802;4.336;2023-07-13T11:25:20;10.15;;;2.83;;
14470;SDS011;7321;50.802;4.336;2023-07-13T11:27:43;4.53;;;2.13;;
14470;SDS011;7321;50.802;4.336;2023-07-13T11:35:53;4.13;;;2.20;;
14470;SDS011;7321;50.802;4.336;2023-07-13T11:40:55;4.13;;;2.30;;
14470;SDS011;7321;50.802;4.336;2023-07-13T11:43:23;5.05;;;2.95;;
14470;SDS011;7321;50.802;4.336;2023-07-13T11:45:50;7.30;;;2.28;;
14470;SDS011;7321;50.802;4.336;2023-07-13T11:50:55;8.32;;;2.65;;
14470;SDS011;7321;50.802;4.336;2023-07-13T11:53:27;5.70;;;2.40;;
14470;SDS011;7321;50.802;4.336;2023-07-13T11:55:56;3.95;;;2.20;;
14470;SDS011;7321;50.802;4.336;2023-07-13T11:58:24;4.53;;;2.20;;
14470;SDS011;7321;50.802;4.336;2023-07-13T12:00:51;4.28;;;2.25;;
14470;SDS011;7321;50.802;4.336;2023-07-13T12:03:20;2.63;;;1.90;;
14470;SDS011;7321;50.802;4.336;2023-07-13T12:06:02;3.75;;;2.20;;
14470;SDS011;7321;50.802;4.336;2023-07-13T12:08:31;4.65;;;2.13;;
14470;SDS011;7321;50.802;4.336;2023-07-13T12:11:04;4.15;;;2.13;;
14470;SDS011;7321;50.802;4.336;2023-07-13T12:13:37;3.75;;;2.33;;
14470;SDS011;7321;50.802;4.336;2023-07-13T12:16:11;2.97;;;1.65;;
14470;SDS011;7321;50.802;4.336;2023-07-13T12:18:41;4.07;;;2.13;;
14470;SDS011;7321;50.802;4.336;2023-07-13T12:21:12;2.25;;;1.73;;
14470;SDS011;7321;50.802;4.336;2023-07-13T12:23:43;3.03;;;1.95;;
14470;SDS011;7321;50.802;4.336;2023-07-13T12:26:10;1.92;;;1.67;;
14470;SDS011;7321;50.802;4.336;2023-07-13T12:28:37;4.05;;;1.90;;
14470;SDS011;7321;50.802;4.336;2023-07-13T12:34:06;3.35;;;2.00;;
14470;SDS011;7321;50.802;4.336;2023-07-13T12:36:37;1.70;;;1.58;;
14470;SDS011;7321;50.802;4.336;2023-07-13T12:42:00;6.50;;;2.20;;
14470;SDS011;7321;50.802;4.336;2023-07-13T12:44:43;4.90;;;2.35;;
14470;SDS011;7321;50.802;4.336;2023-07-13T12:47:11;6.03;;;2.80;;
14470;SDS011;7321;50.802;4.336;2023-07-13T12:49:43;6.47;;;2.85;;
14470;SDS011;7321;50.802;4.336;2023-07-13T12:52:16;5.25;;;2.70;;
14470;SDS011;7321;50.802;4.336;2023-07-13T12:54:55;4.25;;;3.10;;
14470;SDS011;7321;50.802;4.336;2023-07-13T12:57:31;5.50;;;3.30;;
14470;SDS011;7321;50.802;4.336;2023-07-13T12:59:57;5.43;;;3.40;;
14470;SDS011;7321;50.802;4.336;2023-07-13T13:02:30;3.90;;;2.35;;
14470;SDS011;7321;50.802;4.336;2023-07-13T13:05:03;5.93;;;2.78;;
14470;SDS011;7321;50.802;4.336;2023-07-13T13:07:29;2.83;;;2.42;;
14470;SDS011;7321;50.802;4.336;2023-07-13T13:09:55;4.13;;;2.45;;
14470;SDS011;7321;50.802;4.336;2023-07-13T13:12:21;2.97;;;2.40;;
14470;SDS011;7321;50.802;4.336;2023-07-13T13:14:51;4.28;;;2.47;;
14470;SDS011;7321;50.802;4.336;2023-07-13T13:17:22;3.65;;;2.58;;
14470;SDS011;7321;50.802;4.336;2023-07-13T13:19:53;5.57;;;2.58;;
14470;SDS011;7321;50.802;4.336;2023-07-13T13:22:20;4.25;;;2.47;;
14470;SDS011;7321;50.802;4.336;2023-07-13T13:24:46;5.60;;;3.10;;
14470;SDS011;7321;50.802;4.336;2023-07-13T13:27:19;3.08;;;2.20;;
14470;SDS011;7321;50.802;4.336;2023-07-13T13:29:49;5.70;;;2.75;;
14470;SDS011;7321;50.802;4.336;2023-07-13T13:32:19;3.80;;;2.60;;
14470;SDS011;7321;50.802;4.336;2023-07-13T13:34:45;5.93;;;2.55;;
14470;SDS011;7321;50.802;4.336;2023-07-13T13:37:19;4.75;;;2.38;;
14470;SDS011;7321;50.802;4.336;2023-07-13T13:39:47;5.63;;;2.33;;
14470;SDS011;7321;50.802;4.336;2023-07-13T13:42:18;6.20;;;3.03;;
14470;SDS011;7321;50.802;4.336;2023-07-13T13:44:46;5.15;;;2.33;;
14470;SDS011;7321;50.802;4.336;2023-07-13T13:47:21;6.22;;;2.17;;
14470;SDS011;7321;50.802;4.336;2023-07-13T13:49:54;4.38;;;2.00;;
14470;SDS011;7321;50.802;4.336;2023-07-13T13:52:20;4.05;;;2.03;;
14470;SDS011;7321;50.802;4.336;2023-07-13T13:54:46;2.70;;;2.00;;
14470;SDS011;7321;50.802;4.336;2023-07-13T13:57:12;3.95;;;2.30;;
14470;SDS011;7321;50.802;4.336;2023-07-13T13:59:38;2.13;;;1.92;;
14470;SDS011;7321;50.802;4.336;2023-07-13T14:02:25;5.07;;;2.33;;
14470;SDS011;7321;50.802;4.336;2023-07-13T14:04:54;3.92;;;2.05;;
14470;SDS011;7321;50.802;4.336;2023-07-13T14:07:24;3.70;;;2.30;;
14470;SDS011;7321;50.802;4.336;2023-07-13T14:09:54;4.57;;;2.17;;
14470;SDS011;7321;50.802;4.336;2023-07-13T14:12:23;3.42;;;2.15;;
14470;SDS011;7321;50.802;4.336;2023-07-13T14:14:53;4.25;;;2.15;;
14470;SDS011;7321;50.802;4.336;2023-07-13T14:17:23;5.85;;;2.40;;
14470;SDS011;7321;50.802;4.336;2023-07-13T14:19:52;3.70;;;2.40;;
14470;SDS011;7321;50.802;4.336;2023-07-13T14:22:25;4.68;;;2.47;;
14470;SDS011;7321;50.802;4.336;2023-07-13T14:24:53;4.93;;;2.45;;
14470;SDS011;7321;50.802;4.336;2023-07-13T14:27:19;5.03;;;2.70;;
14470;SDS011;7321;50.802;4.336;2023-07-13T14:29:46;5.47;;;2.80;;
14470;SDS011;7321;50.802;4.336;2023-07-13T14:32:12;5.10;;;2.47;;
14470;SDS011;7321;50.802;4.336;2023-07-13T14:34:39;5.63;;;2.65;;
14470;SDS011;7321;50.802;4.336;2023-07-13T14:37:05;3.47;;;2.03;;
14470;SDS011;7321;50.802;4.336;2023-07-13T14:39:37;3.35;;;2.25;;
14470;SDS011;7321;50.802;4.336;2023-07-13T14:42:03;2.97;;;2.22;;
14470;SDS011;7321;50.802;4.336;2023-07-13T14:44:30;3.60;;;2.00;;
14470;SDS011;7321;50.802;4.336;2023-07-13T14:46:59;2.50;;;2.30;;
14470;SDS011;7321;50.802;4.336;2023-07-13T14:49:45;4.00;;;2.35;;
14470;SDS011;7321;50.802;4.336;2023-07-13T14:54:54;5.68;;;2.90;;
14470;SDS011;7321;50.802;4.336;2023-07-13T14:57:23;3.97;;;2.45;;
14470;SDS011;7321;50.802;4.336;2023-07-13T14:59:58;4.05;;;2.63;;
14470;SDS011;7321;50.802;4.336;2023-07-13T15:02:27;4.65;;;2.50;;
14470;SDS011;7321;50.802;4.336;2023-07-13T15:04:59;3.55;;;2.40;;
14470;SDS011;7321;50.802;4.336;2023-07-13T15:07:33;4.60;;;2.60;;
14470;SDS011;7321;50.802;4.336;2023-07-13T15:10:01;6.50;;;2.42;;
14470;SDS011;7321;50.802;4.336;2023-07-13T15:12:30;3.75;;;2.10;;
14470;SDS011;7321;50.802;4.336;2023-07-13T15:15:14;4.03;;;2.13;;
14470;SDS011;7321;50.802;4.336;2023-07-13T15:17:52;5.60;;;2.13;;
14470;SDS011;7321;50.802;4.336;2023-07-13T15:20:23;3.50;;;1.85;;
14470;SDS011;7321;50.802;4.336;2023-07-13T15:22:59;6.63;;;2.80;;
14470;SDS011;7321;50.802;4.336;2023-07-13T15:25:26;4.10;;;2.30;;
14470;SDS011;7321;50.802;4.336;2023-07-13T15:27:54;3.30;;;1.80;;
14470;SDS011;7321;50.802;4.336;2023-07-13T15:30:22;4.68;;;2.08;;
14470;SDS011;7321;50.802;4.336;2023-07-13T15:32:50;5.05;;;2.03;;
14470;SDS011;7321;50.802;4.336;2023-07-13T15:35:24;3.33;;;2.00;;
14470;SDS011;7321;50.802;4.336;2023-07-13T15:37:57;2.85;;;1.90;;
14470;SDS011;7321;50.802;4.336;2023-07-13T15:40:30;4.07;;;1.60;;
14470;SDS011;7321;50.802;4.336;2023-07-13T15:45:51;4.72;;;2.28;;
14470;SDS011;7321;50.802;4.336;2023-07-13T15:48:21;2.53;;;1.92;;
14470;SDS011;7321;50.802;4.336;2023-07-13T15:50:50;3.00;;;1.80;;
14470;SDS011;7321;50.802;4.336;2023-07-13T15:53:24;4.53;;;2.08;;
14470;SDS011;7321;50.802;4.336;2023-07-13T15:55:53;4.43;;;2.25;;
14470;SDS011;7321;50.802;4.336;2023-07-13T15:58:19;4.07;;;1.80;;
14470;SDS011;7321;50.802;4.336;2023-07-13T16:00:47;2.72;;;1.70;;
14470;SDS011;7321;50.802;4.336;2023-07-13T16:06:28;4.93;;;2.60;;
14470;SDS011;7321;50.802;4.336;2023-07-13T16:09:00;2.40;;;2.20;;
14470;SDS011;7321;50.802;4.336;2023-07-13T16:11:28;4.80;;;2.33;;
14470;SDS011;7321;50.802;4.336;2023-07-13T16:13:58;3.60;;;2.38;;